Terminal Aerodrome Forecast
Issued by NWS Grand Forks, ND

Home | Current Version | Previous Version | Text Only | Print | Product List | Glossary On
Versions: 1 2 3 4 5 6 7 8 9 10 11 12 13 14 15 16 17 18 19 20 21 22
117
FTUS43 KFGF 070616 CCA
TAFFAR
TAF COR
KFAR 070616Z 0706/0806 29025G35KT 5SM -SN BLSN OVC026
      TEMPO 0706/0708 1SM -SN BLSN BKN014
     FM071500 29022G32KT P6SM -SN OVC025
     FM080000 31020G30KT 2SM -SN OVC010=

USA.gov is the U.S. government's official web portal to all federal, state and local government web resources and services.